Terminal Aerodrome Forecast
Issued by NWS

Home | Current Version | Previous Version | Text Only | Print | Product List | Glossary On
Versions: 1 2 3 4 5 6 7 8 9 10 11 12 13
000
FTUS44 KCRP 232339
TAFLRD
TAF
KLRD 232339Z 2400/2424 10011KT P6SM OVC100
     FM240600 12005KT P6SM SCT020 BKN080
      TEMPO 2410/2412 BKN020 OVC080
     FM241600 09005KT P6SM SCT035 BKN100
     FM242200 09012KT P6SM VCTS SCT050CB BKN100=

USA.gov is the U.S. government's official web portal to all federal, state and local government web resources and services.